Terminal Aerodrome Forecast
Issued by NWS

Home | Current Version | Previous Version | Text Only | Print | Product List | Glossary On
Versions: 1 2 3 4 5 6 7 8 9 10 11 12 13 14
000
FTUS46 KSGX 132300
TAFPSP
TAF
KPSP 132320Z 1400/1424 VRB05KT P6SM SCT100 SCT150
     FM140300 33010KT P6SM SCT120 SCT150
     FM140700 VRB05KT P6SM BKN150
     FM141600 10011KT P6SM VCTS SCT090CB BKN120=

USA.gov is the U.S. government's official web portal to all federal, state and local government web resources and services.